createdAt,value
2017-10-29T00:01:37.558Z,100520.73
2017-10-29T00:03:39.997Z,100532.36
2017-10-29T00:05:42.497Z,100536.84
2017-10-29T00:07:44.935Z,100518.87
2017-10-29T00:09:47.366Z,100513.89
2017-10-29T00:11:49.863Z,100516.59
2017-10-29T00:13:52.292Z,100509.42
2017-10-29T00:15:54.747Z,100509.84
2017-10-29T00:17:57.312Z,100510.77
2017-10-29T00:19:59.762Z,100499.45
2017-10-29T00:22:02.217Z,100515.75
2017-10-29T00:24:04.717Z,100513.05
2017-10-29T00:26:07.201Z,100504.95
2017-10-29T00:28:09.655Z,100509.00
2017-10-29T00:30:12.135Z,100509.42
2017-10-29T00:32:14.575Z,100503.18
2017-10-29T00:34:17.040Z,100506.72
2017-10-29T00:36:19.540Z,100498.20
2017-10-29T00:38:21.993Z,100485.63
2017-10-29T00:40:24.453Z,100488.33
2017-10-29T00:42:26.954Z,100485.21
2017-10-29T00:44:29.421Z,100478.47
2017-10-29T00:46:32.179Z,100479.39
2017-10-29T00:48:34.654Z,100475.77
2017-10-29T00:50:37.150Z,100471.72
2017-10-29T00:52:39.640Z,100479.39
2017-10-29T00:54:42.189Z,100464.13
2017-10-29T00:56:44.628Z,100466.83
2017-10-29T00:58:47.221Z,100469.02
2017-10-29T01:00:49.687Z,100461.43
2017-10-29T01:02:52.116Z,100457.28
2017-10-29T01:04:54.566Z,100439.83
2017-10-29T01:06:57.110Z,100439.83
2017-10-29T01:08:59.688Z,100446.20
2017-10-29T01:11:02.124Z,100447.93
2017-10-29T01:13:04.728Z,100444.42
2017-10-29T01:15:07.246Z,100442.53
2017-10-29T01:17:09.685Z,100437.97
2017-10-29T01:19:12.158Z,100446.20
2017-10-29T01:21:14.593Z,100442.53
2017-10-29T01:23:17.137Z,100423.25
2017-10-29T01:25:19.644Z,100430.00
2017-10-29T01:27:22.130Z,100424.27
2017-10-29T01:29:24.665Z,100425.11
2017-10-29T01:31:27.158Z,100418.36
2017-10-29T01:33:29.632Z,100407.14
2017-10-29T01:35:32.064Z,100418.78
2017-10-29T01:37:34.560Z,100405.28
2017-10-29T01:39:37.045Z,100399.34
2017-10-29T01:41:39.524Z,100404.35
2017-10-29T01:43:41.991Z,100392.72
2017-10-29T01:45:44.452Z,100392.30
2017-10-29T01:47:47.177Z,100388.25
2017-10-29T01:49:49.652Z,100384.62
2017-10-29T01:51:52.129Z,100377.36
2017-10-29T01:53:54.585Z,100366.66
2017-10-29T01:55:57.078Z,100363.12
2017-10-29T01:57:59.589Z,100359.48
2017-10-29T02:00:02.038Z,100358.13
2017-10-29T02:02:04.507Z,100350.03
2017-10-29T02:04:06.958Z,100353.16
2017-10-29T02:06:09.393Z,100359.91
2017-10-29T02:08:11.869Z,100360.33
2017-10-29T02:10:14.407Z,100344.64
2017-10-29T02:12:18.475Z,100342.36
2017-10-29T02:14:20.948Z,100344.12
2017-10-29T02:16:23.395Z,100340.08
2017-10-29T02:18:25.931Z,100340.17
2017-10-29T02:20:28.417Z,100329.38
2017-10-29T02:22:30.966Z,100314.52
2017-10-29T02:24:33.496Z,100325.73
2017-10-29T02:26:35.968Z,100321.27
2017-10-29T02:28:38.409Z,100323.97
2017-10-29T02:30:40.853Z,100333.52
2017-10-29T02:32:43.316Z,100327.52
2017-10-29T02:34:45.795Z,100324.58
2017-10-29T02:36:48.238Z,100312.85
2017-10-29T02:38:50.710Z,100325.00
2017-10-29T02:40:53.154Z,100325.84
2017-10-29T02:42:55.588Z,100327.70
2017-10-29T02:44:58.053Z,100328.63
2017-10-29T02:47:00.500Z,100324.16
2017-10-29T02:49:03.080Z,100313.78
2017-10-29T02:51:05.558Z,100326.34
2017-10-29T02:53:08.006Z,100321.05
2017-10-29T02:55:10.493Z,100323.65
2017-10-29T02:57:12.966Z,100316.06
2017-10-29T02:59:15.416Z,100312.02
2017-10-29T03:01:17.853Z,100328.21
2017-10-29T03:03:20.330Z,100319.69
2017-10-29T03:05:22.780Z,100321.59
2017-10-29T03:07:25.268Z,100318.34
2017-10-29T03:09:27.741Z,100316.19
2017-10-29T03:11:30.178Z,100318.34
2017-10-29T03:13:32.617Z,100309.86
2017-10-29T03:15:35.186Z,100319.31
2017-10-29T03:17:37.624Z,100302.69
2017-10-29T03:19:40.052Z,100302.69
2017-10-29T03:21:42.594Z,100313.78
2017-10-29T03:23:45.090Z,100296.36
2017-10-29T03:25:47.641Z,100308.09
2017-10-29T03:27:50.219Z,100322.94
2017-10-29T03:29:52.655Z,100320.23
2017-10-29T03:31:55.094Z,100321.59
2017-10-29T03:33:57.563Z,100335.09
2017-10-29T03:36:00.094Z,100333.73
2017-10-29T03:38:02.583Z,100334.16
2017-10-29T03:40:05.061Z,100345.88
2017-10-29T03:42:07.517Z,100352.63
2017-10-29T03:44:09.961Z,100323.03
2017-10-29T03:46:12.436Z,100336.44
2017-10-29T03:48:14.917Z,100343.19
2017-10-29T03:50:17.661Z,100340.58
2017-10-29T03:52:20.130Z,100331.04
2017-10-29T03:54:22.565Z,100331.55
2017-10-29T03:56:25.097Z,100330.20
2017-10-29T03:58:27.664Z,100334.25
2017-10-29T04:00:30.141Z,100323.55
2017-10-29T04:02:32.592Z,100335.18
2017-10-29T04:04:35.061Z,100345.98
2017-10-29T04:06:37.499Z,100350.03
2017-10-29T04:08:39.940Z,100347.84
2017-10-29T04:10:42.412Z,100358.64
2017-10-29T04:12:44.857Z,100365.39
2017-10-29T04:14:47.301Z,100373.48
2017-10-29T04:16:49.768Z,100369.02
2017-10-29T04:18:52.281Z,100382.42
2017-10-29T04:20:54.742Z,100405.45
2017-10-29T04:22:57.236Z,100419.79
2017-10-29T04:24:59.677Z,100415.74
2017-10-29T04:27:02.117Z,100418.44
2017-10-29T04:29:04.590Z,100415.74
2017-10-29T04:31:07.102Z,100424.26
2017-10-29T04:33:09.561Z,100404.02
2017-10-29T04:35:12.030Z,100405.55
2017-10-29T04:37:14.484Z,100404.11
2017-10-29T04:39:16.969Z,100421.23
2017-10-29T04:41:19.549Z,100423.00
2017-10-29T04:43:22.020Z,100425.70
2017-10-29T04:45:24.462Z,100418.95
2017-10-29T04:47:26.981Z,100424.86
2017-10-29T04:49:29.432Z,100454.65
2017-10-29T04:51:32.000Z,100473.03
2017-10-29T04:53:34.467Z,100459.95
2017-10-29T04:55:36.908Z,100477.20
2017-10-29T04:57:39.340Z,100464.52
2017-10-29T04:59:41.905Z,100473.55
2017-10-29T05:01:44.340Z,100469.49
2017-10-29T05:03:46.817Z,100474.09
2017-10-29T05:05:49.296Z,100469.11
2017-10-29T05:07:51.742Z,100476.66
2017-10-29T05:09:54.191Z,100485.69
2017-10-29T05:11:56.657Z,100483.95
2017-10-29T05:13:59.104Z,100493.70
2017-10-29T05:16:01.561Z,100490.28
2017-10-29T05:18:04.117Z,100499.31
2017-10-29T05:20:06.562Z,100499.82
2017-10-29T05:22:08.993Z,100489.03
2017-10-29T05:24:11.454Z,100496.70
2017-10-29T05:26:13.896Z,100499.31
2017-10-29T05:28:16.333Z,100504.80
2017-10-29T05:30:18.797Z,100511.13
2017-10-29T05:32:21.546Z,100501.69
2017-10-29T05:34:23.985Z,100506.98
2017-10-29T05:36:26.460Z,100503.03
2017-10-29T05:38:28.932Z,100505.73
2017-10-29T05:40:31.361Z,100511.22
2017-10-29T05:42:33.828Z,100509.36
2017-10-29T05:44:36.262Z,100521.09
2017-10-29T05:46:38.701Z,100525.14
2017-10-29T05:48:41.272Z,100532.40
2017-10-29T05:50:43.705Z,100530.95
2017-10-29T05:52:46.314Z,100534.68
2017-10-29T05:54:48.774Z,100540.50
2017-10-29T05:56:51.239Z,100551.80
2017-10-29T05:58:53.688Z,100555.85
2017-10-29T06:00:56.161Z,100569.34
2017-10-29T06:02:58.596Z,100575.70
2017-10-29T06:05:01.137Z,100574.87
2017-10-29T06:07:03.702Z,100573.81
2017-10-29T06:09:06.176Z,100582.45
2017-10-29T06:11:08.646Z,100579.76
2017-10-29T06:13:11.216Z,100592.83
2017-10-29T06:15:13.669Z,100592.41
2017-10-29T06:17:16.110Z,100612.23
2017-10-29T06:19:18.571Z,100616.58
2017-10-29T06:21:21.009Z,100623.87
2017-10-29T06:23:23.451Z,100633.33
2017-10-29T06:25:25.934Z,100635.19
2017-10-29T06:27:28.376Z,100643.19
2017-10-29T06:29:30.873Z,100646.82
2017-10-29T06:31:33.358Z,100663.95
2017-10-29T06:33:35.828Z,100672.05
2017-10-29T06:35:38.275Z,100674.23
2017-10-29T06:37:40.748Z,100680.14
2017-10-29T06:39:43.187Z,100686.05
2017-10-29T06:41:45.635Z,100686.47
2017-10-29T06:43:48.128Z,100698.62
2017-10-29T06:45:50.568Z,100704.02
2017-10-29T06:47:53.004Z,100716.58
2017-10-29T06:49:55.474Z,100721.98
2017-10-29T06:51:57.950Z,100720.72
2017-10-29T06:54:00.469Z,100721.98
2017-10-29T06:56:02.989Z,100730.59
2017-10-29T06:58:05.421Z,100736.41
2017-10-29T07:00:07.857Z,100751.25
2017-10-29T07:02:10.404Z,100751.67
2017-10-29T07:04:12.837Z,100759.77
2017-10-29T07:06:15.269Z,100774.11
2017-10-29T07:08:17.738Z,100779.50
2017-10-29T07:10:20.176Z,100786.05
2017-10-29T07:12:22.652Z,100790.69
2017-10-29T07:14:25.117Z,100793.00
2017-10-29T07:16:27.557Z,100801.48
2017-10-29T07:18:30.004Z,100806.80
2017-10-29T07:20:32.529Z,100810.84
2017-10-29T07:22:35.011Z,100815.31
2017-10-29T07:24:37.449Z,100808.15
2017-10-29T07:26:39.904Z,100813.97
2017-10-29T07:28:42.356Z,100819.79
2017-10-29T07:30:44.888Z,100835.56
2017-10-29T07:32:47.367Z,100843.16
2017-10-29T07:34:49.832Z,100841.30
2017-10-29T07:36:52.299Z,100853.45
2017-10-29T07:38:54.776Z,100857.58
2017-10-29T07:40:57.212Z,100851.16
2017-10-29T07:42:59.657Z,100852.94
2017-10-29T07:45:02.163Z,100856.48
2017-10-29T07:47:04.633Z,100862.80
2017-10-29T07:49:07.112Z,100867.66
2017-10-29T07:51:09.582Z,100874.02
2017-10-29T07:53:12.030Z,100875.38
2017-10-29T07:55:14.584Z,100885.20
2017-10-29T07:57:17.096Z,100892.38
2017-10-29T07:59:19.568Z,100890.10
2017-10-29T08:01:22.038Z,100897.27
2017-10-29T08:03:24.600Z,100890.52
2017-10-29T08:05:27.068Z,100883.77
2017-10-29T08:07:29.551Z,100901.23
2017-10-29T08:09:32.118Z,100897.61
2017-10-29T08:11:34.553Z,100902.08
2017-10-29T08:13:37.061Z,100905.70
2017-10-29T08:15:39.533Z,100907.47
2017-10-29T08:17:41.976Z,100915.16
2017-10-29T08:19:44.425Z,100924.94
2017-10-29T08:21:46.877Z,100925.02
2017-10-29T08:23:49.315Z,100933.84
2017-10-29T08:25:51.761Z,100923.89
2017-10-29T08:27:54.219Z,100933.45
2017-10-29T08:29:56.729Z,100940.09
2017-10-29T08:31:59.168Z,100931.14
2017-10-29T08:34:01.657Z,100940.09
2017-10-29T08:36:04.105Z,100940.93
2017-10-29T08:38:06.601Z,100951.64
2017-10-29T08:40:09.075Z,100949.45
2017-10-29T08:42:11.542Z,100956.62
2017-10-29T08:44:13.984Z,100951.64
2017-10-29T08:46:16.463Z,100962.86
2017-10-29T08:48:18.917Z,100962.44
2017-10-29T08:50:21.358Z,100969.61
2017-10-29T08:52:23.850Z,100971.80
2017-10-29T08:54:26.302Z,100979.91
2017-10-29T08:56:28.783Z,100980.83
2017-10-29T08:58:31.258Z,100988.84
2017-10-29T09:00:33.697Z,100986.53
2017-10-29T09:02:36.134Z,100991.00
2017-10-29T09:04:38.595Z,100995.05
2017-10-29T09:06:41.036Z,100998.17
2017-10-29T09:08:43.500Z,100997.75
2017-10-29T09:10:45.988Z,101000.37
2017-10-29T09:12:48.501Z,100994.55
2017-10-29T09:14:50.969Z,100998.09
2017-10-29T09:16:54.678Z,101001.21
2017-10-29T09:18:57.128Z,101001.21
2017-10-29T09:20:59.565Z,101013.27
2017-10-29T09:23:02.032Z,101006.10
2017-10-29T09:25:04.556Z,101018.25
2017-10-29T09:27:07.014Z,101015.47
2017-10-29T09:29:09.475Z,101018.59
2017-10-29T09:31:11.908Z,101015.97
2017-10-29T09:33:14.378Z,101033.83
2017-10-29T09:35:16.853Z,101036.53
2017-10-29T09:37:19.372Z,101049.22
2017-10-29T09:39:21.805Z,101045.17
2017-10-29T09:41:24.290Z,101045.98
2017-10-29T09:43:26.725Z,101054.50
2017-10-29T09:45:29.180Z,101036.53
2017-10-29T09:47:31.646Z,101046.82
2017-10-29T09:49:34.090Z,101046.82
2017-10-29T09:51:36.562Z,101052.64
2017-10-29T09:53:39.125Z,101064.37
2017-10-29T09:55:41.591Z,101055.77
2017-10-29T09:57:44.434Z,101067.92
2017-10-29T09:59:46.906Z,101064.20
2017-10-29T10:01:49.361Z,101063.27
2017-10-29T10:03:51.799Z,101063.19
2017-10-29T10:05:54.268Z,101066.19
2017-10-29T10:07:56.726Z,101063.91
2017-10-29T10:09:59.177Z,101075.55
2017-10-29T10:12:01.679Z,101076.48
2017-10-29T10:14:04.116Z,101083.23
2017-10-29T10:16:06.556Z,101095.30
2017-10-29T10:18:09.026Z,101093.45
2017-10-29T10:20:11.487Z,101100.62
2017-10-29T10:22:13.936Z,101107.37
2017-10-29T10:24:16.402Z,101100.62
2017-10-29T10:26:18.852Z,101110.48
2017-10-29T10:28:21.299Z,101108.72
2017-10-29T10:30:23.766Z,101107.37
2017-10-29T10:32:26.278Z,101119.52
2017-10-29T10:34:28.715Z,101128.44
2017-10-29T10:36:31.181Z,101152.73
2017-10-29T10:38:33.635Z,101161.26
2017-10-29T10:40:36.084Z,101150.88
2017-10-29T10:42:38.587Z,101159.91
2017-10-29T10:44:41.019Z,101161.69
2017-10-29T10:46:43.455Z,101156.79
2017-10-29T10:48:46.053Z,101149.11
2017-10-29T10:50:48.483Z,101149.65
2017-10-29T10:52:50.949Z,101149.22
2017-10-29T10:54:53.427Z,101152.73
2017-10-29T10:56:55.883Z,101157.21
2017-10-29T10:58:58.584Z,101152.34
2017-10-29T11:01:01.153Z,101155.86
2017-10-29T11:03:03.589Z,101143.70
2017-10-29T11:05:06.027Z,101144.12
2017-10-29T11:07:08.561Z,101158.89
2017-10-29T11:09:10.989Z,101160.25
2017-10-29T11:11:13.501Z,101146.75
2017-10-29T11:13:16.153Z,101147.25
2017-10-29T11:15:18.604Z,101149.73
2017-10-29T11:17:21.053Z,101151.45
2017-10-29T11:19:23.586Z,101150.56
2017-10-29T11:21:26.061Z,101162.58
2017-10-29T11:23:28.506Z,101171.04
2017-10-29T11:25:31.004Z,101158.72
2017-10-29T11:27:33.490Z,101147.70
2017-10-29T11:29:36.049Z,101159.59
2017-10-29T11:31:38.514Z,101163.93
2017-10-29T11:33:40.961Z,101174.92
2017-10-29T11:35:43.417Z,101168.01
2017-10-29T11:37:45.917Z,101158.34
2017-10-29T11:39:48.352Z,101167.45
2017-10-29T11:41:50.960Z,101173.77
2017-10-29T11:43:53.436Z,101181.61
2017-10-29T11:45:55.884Z,101168.63
2017-10-29T11:47:58.337Z,101161.45
2017-10-29T11:50:00.789Z,101159.34
2017-10-29T11:52:03.234Z,101160.81
2017-10-29T11:54:05.680Z,101172.95
2017-10-29T11:56:08.140Z,101184.26
2017-10-29T11:58:10.591Z,101196.91
2017-10-29T12:00:13.188Z,101197.84
2017-10-29T12:02:15.760Z,101186.81
2017-10-29T12:04:18.232Z,101178.38
2017-10-29T12:06:20.705Z,101206.88
2017-10-29T12:08:23.172Z,101197.02
2017-10-29T12:10:25.612Z,101203.77
2017-10-29T12:12:28.078Z,101198.48
2017-10-29T12:14:30.574Z,101196.71
2017-10-29T12:16:33.017Z,101203.45
2017-10-29T12:18:35.528Z,101208.52
2017-10-29T12:20:37.992Z,101225.21
2017-10-29T12:22:40.429Z,101258.09
2017-10-29T12:24:42.933Z,101253.21
2017-10-29T12:26:45.397Z,101220.94
2017-10-29T12:28:47.849Z,101236.28
2017-10-29T12:30:50.279Z,101225.49
2017-10-29T12:32:52.732Z,101224.64
2017-10-29T12:34:55.189Z,101217.48
2017-10-29T12:36:57.660Z,101225.15
2017-10-29T12:39:00.118Z,101230.55
2017-10-29T12:41:02.589Z,101231.48
2017-10-29T12:43:05.072Z,101244.47
2017-10-29T12:45:07.640Z,101238.30
2017-10-29T12:47:10.076Z,101242.27
2017-10-29T12:49:12.512Z,101250.05
2017-10-29T12:51:14.992Z,101257.19
2017-10-29T12:53:17.426Z,101247.86
2017-10-29T12:55:19.878Z,101258.16
2017-10-29T12:57:22.355Z,101249.72
2017-10-29T12:59:24.786Z,101242.05
2017-10-29T13:01:27.303Z,101246.59
2017-10-29T13:03:29.875Z,101257.81
2017-10-29T13:05:32.320Z,101262.59
2017-10-29T13:07:34.764Z,101260.23
2017-10-29T13:09:37.231Z,101267.32
2017-10-29T13:11:39.686Z,101269.52
2017-10-29T13:13:42.144Z,101270.75
2017-10-29T13:15:44.611Z,101291.75
2017-10-29T13:17:47.053Z,101296.14
2017-10-29T13:19:49.532Z,101284.73
2017-10-29T13:21:52.105Z,101281.02
2017-10-29T13:23:54.575Z,101283.55
2017-10-29T13:25:57.037Z,101290.61
2017-10-29T13:27:59.488Z,101293.66
2017-10-29T13:30:01.928Z,101297.11
2017-10-29T13:32:04.452Z,101298.77
2017-10-29T13:34:06.920Z,101300.38
2017-10-29T13:36:09.363Z,101299.88
2017-10-29T13:38:11.801Z,101297.52
2017-10-29T13:40:14.330Z,101296.59
2017-10-29T13:42:16.768Z,101303.68
2017-10-29T13:44:19.269Z,101302.67
2017-10-29T13:46:21.732Z,101308.88
2017-10-29T13:48:24.212Z,101311.08
2017-10-29T13:50:26.677Z,101313.61
2017-10-29T13:52:29.132Z,101309.14
2017-10-29T13:54:31.660Z,101312.19
2017-10-29T13:56:34.096Z,101313.76
2017-10-29T13:58:36.567Z,101307.94
2017-10-29T14:00:39.020Z,101315.88
2017-10-29T14:02:42.904Z,101316.80
2017-10-29T14:04:45.424Z,101327.41
2017-10-29T14:06:47.865Z,101314.24
2017-10-29T14:08:50.315Z,101312.89
2017-10-29T14:10:52.826Z,101323.11
2017-10-29T14:12:55.288Z,101331.63
2017-10-29T14:14:57.742Z,101326.61
2017-10-29T14:17:00.334Z,101322.91
2017-10-29T14:19:02.779Z,101318.86
2017-10-29T14:21:05.229Z,101328.31
2017-10-29T14:23:07.702Z,101329.58
2017-10-29T14:25:10.146Z,101335.73
2017-10-29T14:27:12.583Z,101324.52
2017-10-29T14:29:15.044Z,101329.38
2017-10-29T14:31:17.480Z,101323.90
2017-10-29T14:33:19.909Z,101323.90
2017-10-29T14:35:22.377Z,101326.09
2017-10-29T14:37:24.816Z,101331.83
2017-10-29T14:39:27.256Z,101324.66
2017-10-29T14:41:29.804Z,101329.55
2017-10-29T14:43:32.255Z,101335.80
2017-10-29T14:45:34.705Z,101336.19
2017-10-29T14:47:37.186Z,101339.31
2017-10-29T14:49:39.628Z,101334.34
2017-10-29T14:51:42.137Z,101323.95
2017-10-29T14:53:44.619Z,101321.77
2017-10-29T14:55:47.070Z,101321.26
2017-10-29T14:57:49.511Z,101321.68
2017-10-29T14:59:51.989Z,101325.22
2017-10-29T15:01:54.440Z,101321.17
2017-10-29T15:03:56.878Z,101334.17
2017-10-29T15:05:59.347Z,101344.05
2017-10-29T15:08:01.785Z,101341.34
2017-10-29T15:10:04.240Z,101350.38
2017-10-29T15:12:06.697Z,101358.89
2017-10-29T15:14:09.133Z,101362.02
2017-10-29T15:16:11.575Z,101368.77
2017-10-29T15:18:14.094Z,101373.75
2017-10-29T15:20:16.576Z,101373.24
2017-10-29T15:22:19.016Z,101370.12
2017-10-29T15:24:21.612Z,101361.52
2017-10-29T15:26:24.055Z,101369.61
2017-10-29T15:28:26.497Z,101376.37
2017-10-29T15:30:28.957Z,101385.90
2017-10-29T15:32:31.444Z,101386.75
2017-10-29T15:34:33.884Z,101389.53
2017-10-29T15:36:36.361Z,101387.17
2017-10-29T15:38:38.823Z,101384.62
2017-10-29T15:40:41.270Z,101391.30
2017-10-29T15:42:43.734Z,101394.50
2017-10-29T15:44:46.242Z,101404.80
2017-10-29T15:46:48.697Z,101408.43
2017-10-29T15:48:51.181Z,101407.08
2017-10-29T15:50:53.621Z,101419.31
2017-10-29T15:52:56.077Z,101433.31
2017-10-29T15:54:58.530Z,101449.94
2017-10-29T15:57:01.065Z,101435.09
2017-10-29T15:59:03.504Z,101443.19
2017-10-29T16:01:05.976Z,101440.99
2017-10-29T16:03:08.429Z,101439.22
2017-10-29T16:05:10.863Z,101438.41
2017-10-29T16:07:13.329Z,101444.63
2017-10-29T16:09:15.765Z,101450.02
2017-10-29T16:11:18.214Z,101463.10
2017-10-29T16:13:20.968Z,101457.70
2017-10-29T16:15:23.545Z,101464.56
2017-10-29T16:17:26.010Z,101456.46
2017-10-29T16:19:28.535Z,101462.29
2017-10-29T16:21:30.975Z,101461.02
2017-10-29T16:23:33.499Z,101478.56
2017-10-29T16:25:36.049Z,101478.14
2017-10-29T16:27:38.489Z,101480.84
2017-10-29T16:29:41.014Z,101485.83
2017-10-29T16:31:43.557Z,101484.89
2017-10-29T16:33:46.008Z,101489.45
2017-10-29T16:35:48.540Z,101488.60
2017-10-29T16:37:51.082Z,101494.08
2017-10-29T16:39:53.561Z,101500.83
2017-10-29T16:41:56.058Z,101499.91
2017-10-29T16:43:58.655Z,101504.49
2017-10-29T16:46:01.106Z,101503.14
2017-10-29T16:48:03.641Z,101501.37
2017-10-29T16:50:06.167Z,101512.59
2017-10-29T16:52:08.613Z,101503.73
2017-10-29T16:54:11.046Z,101504.16
2017-10-29T16:56:13.504Z,101501.03
2017-10-29T16:58:15.946Z,101509.62
2017-10-29T17:00:19.348Z,101516.38
2017-10-29T17:02:21.807Z,101518.23
2017-10-29T17:04:24.240Z,101529.96
2017-10-29T17:06:26.674Z,101532.66
2017-10-29T17:08:29.128Z,101541.27
2017-10-29T17:10:31.570Z,101541.27
2017-10-29T17:12:34.020Z,101544.73
2017-10-29T17:14:36.486Z,101549.70
2017-10-29T17:16:38.953Z,101550.12
2017-10-29T17:18:41.404Z,101568.11
2017-10-29T17:20:43.920Z,101556.88
2017-10-29T17:22:46.365Z,101564.91
2017-10-29T17:24:48.801Z,101568.95
2017-10-29T17:26:51.292Z,101570.38
2017-10-29T17:28:53.751Z,101574.35
2017-10-29T17:30:56.193Z,101573.93
2017-10-29T17:32:58.653Z,101579.33
2017-10-29T17:35:01.101Z,101580.76
2017-10-29T17:37:03.553Z,101587.59
2017-10-29T17:39:06.020Z,101594.77
2017-10-29T17:41:08.459Z,101602.02
2017-10-29T17:43:10.896Z,101608.77
2017-10-29T17:45:13.365Z,101611.47
2017-10-29T17:47:15.901Z,101619.17
2017-10-29T17:49:18.340Z,101619.17
2017-10-29T17:51:20.833Z,101622.27
2017-10-29T17:53:23.282Z,101618.33
2017-10-29T17:55:25.724Z,101627.85
2017-10-29T17:57:28.251Z,101630.55
2017-10-29T17:59:30.699Z,101637.81
2017-10-29T18:01:33.133Z,101639.16
2017-10-29T18:03:35.638Z,101641.43
2017-10-29T18:05:38.083Z,101645.98
2017-10-29T18:07:40.564Z,101650.03
2017-10-29T18:09:43.068Z,101654.59
2017-10-29T18:11:45.508Z,101651.07
2017-10-29T18:13:47.948Z,101654.70
2017-10-29T18:15:50.404Z,101658.33
2017-10-29T18:17:52.842Z,101655.13
2017-10-29T18:19:55.313Z,101661.95
2017-10-29T18:21:57.787Z,101652.08
2017-10-29T18:24:00.226Z,101653.84
2017-10-29T18:26:02.722Z,101653.92
2017-10-29T18:28:05.196Z,101654.34
2017-10-29T18:30:07.638Z,101658.48
2017-10-29T18:32:10.083Z,101658.48
2017-10-29T18:34:12.551Z,101660.33
2017-10-29T18:36:15.003Z,101668.43
2017-10-29T18:38:17.461Z,101662.11
2017-10-29T18:40:19.930Z,101668.00
2017-10-29T18:42:22.476Z,101667.61
2017-10-29T18:44:24.933Z,101664.91
2017-10-29T18:46:27.398Z,101662.72
2017-10-29T18:48:29.838Z,101659.09
2017-10-29T18:50:32.274Z,101656.39
2017-10-29T18:52:34.823Z,101661.37
2017-10-29T18:54:37.291Z,101661.02
2017-10-29T18:56:39.807Z,101661.52
2017-10-29T18:58:42.266Z,101667.77
2017-10-29T19:00:44.804Z,101663.80
2017-10-29T19:02:47.280Z,101666.07
2017-10-29T19:04:49.750Z,101660.78
2017-10-29T19:06:52.184Z,101667.53
2017-10-29T19:08:54.626Z,101667.84
2017-10-29T19:10:57.096Z,101672.94
2017-10-29T19:12:59.540Z,101673.86
2017-10-29T19:15:01.995Z,101674.36
2017-10-29T19:17:04.467Z,101669.81
2017-10-29T19:19:06.900Z,101672.23
2017-10-29T19:21:09.344Z,101678.91
2017-10-29T19:23:11.872Z,101682.96
2017-10-29T19:25:14.359Z,101685.66
2017-10-29T19:27:16.829Z,101680.34
2017-10-29T19:29:19.400Z,101682.11
2017-10-29T19:31:21.842Z,101680.77
2017-10-29T19:33:24.347Z,101685.31
2017-10-29T19:35:26.818Z,101691.64
2017-10-29T19:37:29.274Z,101692.91
2017-10-29T19:39:31.715Z,101689.44
2017-10-29T19:41:34.583Z,101691.21
2017-10-29T19:43:37.109Z,101700.66
2017-10-29T19:45:39.702Z,101704.71
2017-10-29T19:47:43.218Z,101712.89
2017-10-29T19:49:45.740Z,101713.73
2017-10-29T19:51:48.198Z,101724.11
2017-10-29T19:53:50.791Z,101722.34
2017-10-29T19:55:53.242Z,101715.66
2017-10-29T19:57:56.701Z,101719.21
2017-10-29T19:59:59.332Z,101718.44
2017-10-29T20:02:01.785Z,101720.13
2017-10-29T20:04:04.696Z,101717.09
2017-10-29T20:06:07.216Z,101715.73
2017-10-29T20:08:09.684Z,101714.39
2017-10-29T20:10:12.133Z,101723.34
2017-10-29T20:12:14.649Z,101724.34
2017-10-29T20:14:17.095Z,101727.47
2017-10-29T20:16:19.547Z,101732.44
2017-10-29T20:18:22.020Z,101740.11
2017-10-29T20:20:24.464Z,101739.69
2017-10-29T20:22:26.898Z,101741.46
2017-10-29T20:24:29.364Z,101746.02
2017-10-29T20:26:31.834Z,101751.02
2017-10-29T20:28:34.277Z,101747.47
2017-10-29T20:30:36.769Z,101754.11
2017-10-29T20:32:39.213Z,101760.36
2017-10-29T20:34:41.654Z,101768.95
2017-10-29T20:36:44.121Z,101761.81
2017-10-29T20:38:46.636Z,101772.61
2017-10-29T20:40:49.099Z,101773.54
2017-10-29T20:42:51.569Z,101774.89
2017-10-29T20:44:54.009Z,101775.31
2017-10-29T20:46:56.454Z,101775.81
2017-10-29T20:48:58.996Z,101776.31
2017-10-29T20:51:01.484Z,101787.96
2017-10-29T20:53:03.926Z,101791.66
2017-10-29T20:55:06.427Z,101795.28
2017-10-29T20:57:08.862Z,101796.21
2017-10-29T20:59:11.352Z,101799.33
2017-10-29T21:01:13.823Z,101805.16
2017-10-29T21:03:16.261Z,101803.88
2017-10-29T21:05:19.689Z,101796.28
2017-10-29T21:07:22.143Z,101799.91
2017-10-29T21:09:24.593Z,101800.44
2017-10-29T21:11:27.037Z,101803.64
2017-10-29T21:13:29.568Z,101805.92
2017-10-29T21:15:32.007Z,101805.49
2017-10-29T21:17:34.444Z,101811.31
2017-10-29T21:19:36.908Z,101808.19
2017-10-29T21:21:39.356Z,101810.47
2017-10-29T21:23:42.001Z,101816.29
2017-10-29T21:25:45.639Z,101817.72
2017-10-29T21:27:48.089Z,101816.79
2017-10-29T21:29:50.553Z,101813.66
2017-10-29T21:31:53.036Z,101812.31
2017-10-29T21:33:55.513Z,101810.04
2017-10-29T21:35:57.953Z,101807.84
2017-10-29T21:38:00.447Z,101803.37
2017-10-29T21:40:02.903Z,101811.89
2017-10-29T21:42:05.384Z,101807.42
2017-10-29T21:44:07.847Z,101804.64
2017-10-29T21:46:10.357Z,101803.80
2017-10-29T21:48:12.793Z,101802.02
2017-10-29T21:50:15.264Z,101802.45
2017-10-29T21:52:17.732Z,101805.57
2017-10-29T21:54:20.172Z,101803.37
2017-10-29T21:56:22.638Z,101805.64
2017-10-29T21:58:25.079Z,101811.97
2017-10-29T22:00:27.521Z,101814.27
2017-10-29T22:02:30.076Z,101813.74
2017-10-29T22:04:32.525Z,101822.77
2017-10-29T22:06:35.033Z,101820.06
2017-10-29T22:08:37.495Z,101815.63
2017-10-29T22:10:39.932Z,101817.72
2017-10-29T22:12:42.375Z,101820.06
2017-10-29T22:14:44.829Z,101811.15
2017-10-29T22:16:47.279Z,101815.20
2017-10-29T22:18:49.734Z,101817.05
2017-10-29T22:20:52.206Z,101821.02
2017-10-29T22:22:54.644Z,101819.32
2017-10-29T22:24:57.153Z,101827.84
2017-10-29T22:26:59.629Z,101816.63
2017-10-29T22:29:02.076Z,101813.92
2017-10-29T22:31:04.527Z,101814.77
2017-10-29T22:33:06.998Z,101822.95
2017-10-29T22:35:09.601Z,101826.57
2017-10-29T22:37:12.077Z,101822.95
2017-10-29T22:39:14.609Z,101821.17
2017-10-29T22:41:17.118Z,101820.32
2017-10-29T22:43:19.574Z,101817.63
2017-10-29T22:45:22.064Z,101827.07
2017-10-29T22:47:24.500Z,101830.27
2017-10-29T22:49:26.957Z,101837.44
2017-10-29T22:51:29.467Z,101837.37
2017-10-29T22:53:31.937Z,101834.81
2017-10-29T22:55:34.387Z,101840.22
2017-10-29T22:57:36.887Z,101839.83
2017-10-29T22:59:39.349Z,101842.91
2017-10-29T23:01:41.829Z,101846.47
2017-10-29T23:03:44.283Z,101843.77
2017-10-29T23:05:53.615Z,101842.09
2017-10-29T23:08:10.920Z,101838.48
2017-10-29T23:10:13.376Z,101839.83
2017-10-29T23:12:15.816Z,101837.20
2017-10-29T23:14:18.256Z,101841.25
2017-10-29T23:16:20.709Z,101832.30
2017-10-29T23:18:23.151Z,101834.92